createdAt,value
2019-02-14T00:01:08.239Z,102113.80
2019-02-14T00:03:35.908Z,102111.78
2019-02-14T00:06:03.562Z,102106.94
2019-02-14T00:08:31.206Z,102105.88
2019-02-14T00:10:58.867Z,102097.94
2019-02-14T00:13:26.518Z,102095.41
2019-02-14T00:15:54.172Z,102096.21
2019-02-14T00:18:21.824Z,102101.61
2019-02-14T00:20:49.481Z,102107.30
2019-02-14T00:23:17.142Z,102104.73
2019-02-14T00:25:44.796Z,102096.47
2019-02-14T00:28:12.450Z,102101.61
2019-02-14T00:30:40.097Z,102103.34
2019-02-14T00:33:07.751Z,102106.94
2019-02-14T00:35:35.478Z,102108.48
2019-02-14T00:38:03.125Z,102114.91
2019-02-14T00:40:30.777Z,102109.22
2019-02-14T00:42:58.427Z,102113.20
2019-02-14T00:45:26.086Z,102118.50
2019-02-14T00:47:53.732Z,102116.45
2019-02-14T00:50:21.373Z,102113.03
2019-02-14T00:52:49.033Z,102119.08
2019-02-14T00:55:16.678Z,102121.48
2019-02-14T00:57:44.335Z,102133.05
2019-02-14T01:00:11.981Z,102125.50
2019-02-14T01:02:39.638Z,102129.77
2019-02-14T01:05:07.288Z,102137.01
2019-02-14T01:07:34.939Z,102132.16
2019-02-14T01:10:02.604Z,102132.70
2019-02-14T01:12:30.255Z,102132.45
2019-02-14T01:14:57.904Z,102125.77
2019-02-14T01:17:25.558Z,102127.47
2019-02-14T01:19:53.217Z,102122.33
2019-02-14T01:22:20.873Z,102129.88
2019-02-14T01:24:48.523Z,102129.23
2019-02-14T01:27:16.185Z,102130.58
2019-02-14T01:29:43.829Z,102133.05
2019-02-14T01:32:11.562Z,102135.59
2019-02-14T01:34:39.374Z,102133.05
2019-02-14T01:37:07.049Z,102132.59
2019-02-14T01:39:34.702Z,102137.96
2019-02-14T01:42:02.361Z,102141.50
2019-02-14T01:44:30.021Z,102139.95
2019-02-14T01:46:57.679Z,102140.95
2019-02-14T01:49:25.332Z,102134.02
2019-02-14T01:51:52.968Z,102132.31
2019-02-14T01:54:20.624Z,102132.70
2019-02-14T01:56:48.269Z,102130.52
2019-02-14T01:59:15.927Z,102123.55
2019-02-14T02:01:43.584Z,102119.02
2019-02-14T02:04:11.245Z,102119.82
2019-02-14T02:06:38.892Z,102121.62
2019-02-14T02:09:07.235Z,102124.06
2019-02-14T02:11:34.877Z,102118.95
2019-02-14T02:14:02.581Z,102119.79
2019-02-14T02:16:30.352Z,102122.88
2019-02-14T02:18:57.997Z,102128.56
2019-02-14T02:21:25.658Z,102137.10
2019-02-14T02:23:53.304Z,102133.73
2019-02-14T02:26:20.949Z,102129.17
2019-02-14T02:28:48.602Z,102138.48
2019-02-14T02:31:16.251Z,102133.34
2019-02-14T02:33:43.909Z,102130.13
2019-02-14T02:36:11.562Z,102137.30
2019-02-14T02:38:39.223Z,102134.25
2019-02-14T02:41:06.861Z,102134.63
2019-02-14T02:43:34.501Z,102136.20
2019-02-14T02:46:02.155Z,102133.19
2019-02-14T02:48:29.796Z,102133.98
2019-02-14T02:50:57.446Z,102134.82
2019-02-14T02:53:25.101Z,102142.40
2019-02-14T02:55:52.749Z,102147.41
2019-02-14T02:58:20.402Z,102149.72
2019-02-14T03:00:48.059Z,102151.56
2019-02-14T03:03:15.734Z,102155.93
2019-02-14T03:05:43.442Z,102157.25
2019-02-14T03:08:11.096Z,102159.66
2019-02-14T03:10:38.829Z,102162.73
2019-02-14T03:13:06.475Z,102158.72
2019-02-14T03:15:34.120Z,102165.50
2019-02-14T03:18:01.771Z,102169.16
2019-02-14T03:20:29.420Z,102165.08
2019-02-14T03:22:57.061Z,102166.05
2019-02-14T03:25:24.714Z,102165.85
2019-02-14T03:27:52.362Z,102175.41
2019-02-14T03:30:20.020Z,102174.00
2019-02-14T03:32:47.667Z,102177.22
2019-02-14T03:35:15.400Z,102172.11
2019-02-14T03:37:43.049Z,102169.45
2019-02-14T03:40:10.689Z,102172.28
2019-02-14T03:42:38.332Z,102178.19
2019-02-14T03:45:05.992Z,102178.38
2019-02-14T03:47:33.640Z,102180.60
2019-02-14T03:50:01.285Z,102182.69
2019-02-14T03:52:28.941Z,102174.72
2019-02-14T03:54:56.590Z,102177.83
2019-02-14T03:57:24.239Z,102172.23
2019-02-14T03:59:51.893Z,102176.98
2019-02-14T04:02:19.537Z,102163.82
2019-02-14T04:04:47.184Z,102165.54
2019-02-14T04:07:14.825Z,102162.48
2019-02-14T04:09:42.482Z,102163.43
2019-02-14T04:12:10.138Z,102159.20
2019-02-14T04:14:37.800Z,102168.34
2019-02-14T04:17:05.449Z,102165.92
2019-02-14T04:19:33.110Z,102169.23
2019-02-14T04:22:00.824Z,102159.89
2019-02-14T04:24:28.476Z,102162.30
2019-02-14T04:26:56.138Z,102161.98
2019-02-14T04:29:23.780Z,102158.61
2019-02-14T04:31:51.441Z,102159.94
2019-02-14T04:34:19.077Z,102152.19
2019-02-14T04:36:46.729Z,102151.20
2019-02-14T04:39:14.468Z,102155.97
2019-02-14T04:41:42.130Z,102157.62
2019-02-14T04:44:09.779Z,102154.00
2019-02-14T04:46:37.434Z,102158.13
2019-02-14T04:49:05.077Z,102150.67
2019-02-14T04:51:32.726Z,102142.61
2019-02-14T04:54:00.377Z,102140.92
2019-02-14T04:56:28.028Z,102139.13
2019-02-14T04:58:55.682Z,102141.48
2019-02-14T05:01:23.418Z,102142.76
2019-02-14T05:03:51.068Z,102135.11
2019-02-14T05:06:18.718Z,102134.05
2019-02-14T05:08:46.378Z,102130.69
2019-02-14T05:11:14.023Z,102129.70
2019-02-14T05:13:41.665Z,102130.22
2019-02-14T05:16:09.325Z,102139.48
2019-02-14T05:18:36.955Z,102140.48
2019-02-14T05:21:04.610Z,102140.87
2019-02-14T05:23:32.258Z,102137.96
2019-02-14T05:25:59.910Z,102143.70
2019-02-14T05:28:27.553Z,102152.92
2019-02-14T05:30:55.290Z,102147.94
2019-02-14T05:33:22.931Z,102147.18
2019-02-14T05:35:50.621Z,102151.30
2019-02-14T05:38:18.276Z,102157.33
2019-02-14T05:40:45.926Z,102154.63
2019-02-14T05:43:13.565Z,102162.46
2019-02-14T05:45:41.218Z,102168.22
2019-02-14T05:48:08.869Z,102171.30
2019-02-14T05:50:36.528Z,102170.66
2019-02-14T05:53:04.194Z,102165.67
2019-02-14T05:55:31.847Z,102173.88
2019-02-14T05:57:59.492Z,102176.95
2019-02-14T06:00:27.142Z,102175.41
2019-02-14T06:02:54.793Z,102186.45
2019-02-14T06:05:22.437Z,102187.98
2019-02-14T06:07:50.091Z,102178.00
2019-02-14T06:10:17.738Z,102174.78
2019-02-14T06:12:45.382Z,102175.44
2019-02-14T06:15:13.035Z,102170.55
2019-02-14T06:17:40.686Z,102170.80
2019-02-14T06:20:08.325Z,102182.20
2019-02-14T06:22:35.978Z,102186.45
2019-02-14T06:25:03.638Z,102184.64
2019-02-14T06:27:31.285Z,102192.09
2019-02-14T06:29:58.936Z,102200.14
2019-02-14T06:32:26.590Z,102186.18
2019-02-14T06:34:54.230Z,102200.02
2019-02-14T06:37:21.929Z,102191.58
2019-02-14T06:39:49.604Z,102204.88
2019-02-14T06:42:17.327Z,102217.86
2019-02-14T06:44:45.002Z,102219.87
2019-02-14T06:47:12.653Z,102228.73
2019-02-14T06:49:40.315Z,102234.25
2019-02-14T06:52:07.958Z,102232.06
2019-02-14T06:54:35.634Z,102231.02
2019-02-14T06:57:03.268Z,102236.41
2019-02-14T06:59:30.938Z,102239.42
2019-02-14T07:01:58.579Z,102249.39
2019-02-14T07:04:26.229Z,102244.61
2019-02-14T07:06:53.888Z,102255.99
2019-02-14T07:09:21.545Z,102250.34
2019-02-14T07:11:49.192Z,102251.14
2019-02-14T07:14:16.841Z,102245.09
2019-02-14T07:16:44.492Z,102238.45
2019-02-14T07:19:12.615Z,102248.73
2019-02-14T07:21:40.270Z,102250.92
2019-02-14T07:24:07.927Z,102239.49
2019-02-14T07:26:35.566Z,102234.75
2019-02-14T07:29:03.229Z,102237.70
2019-02-14T07:31:30.886Z,102254.63
2019-02-14T07:33:58.541Z,102252.45
2019-02-14T07:36:26.187Z,102254.63
2019-02-14T07:38:53.844Z,102255.25
2019-02-14T07:41:21.501Z,102265.89
2019-02-14T07:43:49.159Z,102270.09
2019-02-14T07:46:22.577Z,102269.95
2019-02-14T07:48:46.176Z,102278.16
2019-02-14T07:51:13.835Z,102286.59
2019-02-14T07:53:41.548Z,102285.31
2019-02-14T07:56:09.302Z,102281.23
2019-02-14T07:58:37.058Z,102279.90
2019-02-14T08:01:04.710Z,102274.66
2019-02-14T08:03:32.366Z,102268.03
2019-02-14T08:06:00.018Z,102261.45
2019-02-14T08:08:27.662Z,102258.13
2019-02-14T08:10:55.323Z,102255.92
2019-02-14T08:13:22.965Z,102262.05
2019-02-14T08:15:50.622Z,102275.11
2019-02-14T08:18:18.261Z,102283.70
2019-02-14T08:20:45.934Z,102292.97
2019-02-14T08:23:13.582Z,102293.73
2019-02-14T08:25:41.242Z,102300.30
2019-02-14T08:28:08.922Z,102295.67
2019-02-14T08:30:36.598Z,102297.72
2019-02-14T08:33:04.243Z,102288.59
2019-02-14T08:35:31.893Z,102292.38
2019-02-14T08:37:59.554Z,102292.61
2019-02-14T08:40:27.213Z,102282.02
2019-02-14T08:42:54.861Z,102281.27
2019-02-14T08:45:22.523Z,102285.36
2019-02-14T08:47:50.173Z,102292.38
2019-02-14T08:50:17.829Z,102299.28
2019-02-14T08:52:45.483Z,102295.99
2019-02-14T08:55:13.122Z,102301.63
2019-02-14T08:57:40.778Z,102323.34
2019-02-14T09:00:08.535Z,102330.19
2019-02-14T09:02:36.178Z,102320.98
2019-02-14T09:05:03.832Z,102319.92
2019-02-14T09:07:31.482Z,102309.16
2019-02-14T09:09:59.165Z,102302.25
2019-02-14T09:12:26.806Z,102304.47
2019-02-14T09:14:54.462Z,102304.98
2019-02-14T09:17:22.110Z,102303.53
2019-02-14T09:19:49.763Z,102284.81
2019-02-14T09:22:17.411Z,102275.54
2019-02-14T09:24:45.090Z,102276.58
2019-02-14T09:27:12.734Z,102283.61
2019-02-14T09:29:40.406Z,102278.52
2019-02-14T09:32:08.058Z,102278.17
2019-02-14T09:34:35.719Z,102271.02
2019-02-14T09:37:03.378Z,102276.52
2019-02-14T09:39:31.021Z,102276.23
2019-02-14T09:41:58.691Z,102275.42
2019-02-14T09:44:26.356Z,102271.27
2019-02-14T09:46:54.011Z,102279.53
2019-02-14T09:49:21.671Z,102271.33
2019-02-14T09:51:49.323Z,102269.08
2019-02-14T09:54:16.995Z,102260.44
2019-02-14T09:56:44.724Z,102255.22
2019-02-14T09:59:12.381Z,102255.80
2019-02-14T10:01:40.023Z,102252.50
2019-02-14T10:04:07.667Z,102255.23
2019-02-14T10:06:36.900Z,102250.86
2019-02-14T10:09:05.881Z,102247.95
2019-02-14T10:11:33.548Z,102247.36
2019-02-14T10:14:01.262Z,102247.48
2019-02-14T10:16:28.931Z,102234.81
2019-02-14T10:18:56.583Z,102227.17
2019-02-14T10:21:24.238Z,102227.42
2019-02-14T10:23:51.885Z,102238.83
2019-02-14T10:26:19.542Z,102232.04
2019-02-14T10:28:47.205Z,102230.66
2019-02-14T10:31:14.878Z,102227.00
2019-02-14T10:33:42.529Z,102233.66
2019-02-14T10:36:10.189Z,102224.26
2019-02-14T10:38:37.853Z,102217.45
2019-02-14T10:41:05.510Z,102205.64
2019-02-14T10:43:33.169Z,102212.91
2019-02-14T10:46:00.824Z,102208.35
2019-02-14T10:48:28.483Z,102217.97
2019-02-14T10:50:56.161Z,102213.31
2019-02-14T10:53:23.819Z,102211.70
2019-02-14T10:55:51.550Z,102215.39
2019-02-14T10:58:19.206Z,102218.95
2019-02-14T11:00:46.892Z,102213.41
2019-02-14T11:03:14.618Z,102216.09
2019-02-14T11:05:42.269Z,102231.97
2019-02-14T11:08:09.930Z,102231.20
2019-02-14T11:10:37.600Z,102228.11
2019-02-14T11:13:05.249Z,102235.46
2019-02-14T11:15:32.905Z,102232.97
2019-02-14T11:18:00.560Z,102247.08
2019-02-14T11:20:28.213Z,102263.09
2019-02-14T11:22:55.893Z,102269.44
2019-02-14T11:25:23.530Z,102265.47
2019-02-14T11:27:51.192Z,102255.65
2019-02-14T11:30:18.854Z,102247.78
2019-02-14T11:32:46.515Z,102238.64
2019-02-14T11:35:14.175Z,102227.48
2019-02-14T11:37:41.847Z,102219.73
2019-02-14T11:40:09.505Z,102217.94
2019-02-14T11:42:37.169Z,102220.73
2019-02-14T11:45:04.818Z,102210.00
2019-02-14T11:47:32.493Z,102208.75
2019-02-14T11:50:00.290Z,102212.06
2019-02-14T11:52:28.085Z,102204.62
2019-02-14T11:54:55.751Z,102206.38
2019-02-14T11:57:23.413Z,102201.53
2019-02-14T11:59:51.071Z,102196.56
2019-02-14T12:02:18.730Z,102192.50
2019-02-14T12:04:46.389Z,102183.53
2019-02-14T12:07:14.042Z,102176.70
2019-02-14T12:09:41.693Z,102171.51
2019-02-14T12:12:09.371Z,102166.23
2019-02-14T12:14:37.038Z,102160.88
2019-02-14T12:17:04.693Z,102161.38
2019-02-14T12:19:32.354Z,102163.38
2019-02-14T12:22:00.006Z,102155.09
2019-02-14T12:24:27.668Z,102158.97
2019-02-14T12:26:55.321Z,102160.38
2019-02-14T12:29:22.977Z,102160.58
2019-02-14T12:31:50.633Z,102157.97
2019-02-14T12:34:18.318Z,102145.55
2019-02-14T12:36:46.002Z,102150.72
2019-02-14T12:39:13.647Z,102142.67
2019-02-14T12:41:41.306Z,102144.47
2019-02-14T12:44:08.979Z,102147.45
2019-02-14T12:46:37.948Z,102145.76
2019-02-14T12:49:05.770Z,102138.62
2019-02-14T12:51:33.418Z,102135.45
2019-02-14T12:54:01.083Z,102128.92
2019-02-14T12:56:28.737Z,102120.81
2019-02-14T12:58:56.497Z,102125.37
2019-02-14T13:01:24.149Z,102125.27
2019-02-14T13:03:51.810Z,102116.22
2019-02-14T13:06:19.471Z,102121.37
2019-02-14T13:08:47.126Z,102115.27
2019-02-14T13:11:14.797Z,102115.77
2019-02-14T13:13:42.457Z,102109.48
2019-02-14T13:16:10.185Z,102118.19
2019-02-14T13:18:37.855Z,102122.97
2019-02-14T13:21:05.542Z,102126.28
2019-02-14T13:23:33.206Z,102126.79
2019-02-14T13:26:00.854Z,102124.66
2019-02-14T13:28:28.518Z,102123.56
2019-02-14T13:30:56.180Z,102126.40
2019-02-14T13:33:23.850Z,102124.03
2019-02-14T13:35:51.497Z,102127.56
2019-02-14T13:38:19.165Z,102120.77
2019-02-14T13:40:46.828Z,102119.36
2019-02-14T13:43:14.486Z,102120.55
2019-02-14T13:45:42.140Z,102118.07
2019-02-14T13:48:09.828Z,102119.08
2019-02-14T13:50:37.550Z,102115.20
2019-02-14T13:53:05.207Z,102112.62
2019-02-14T13:55:32.869Z,102111.94
2019-02-14T13:58:00.532Z,102110.14
2019-02-14T14:00:28.180Z,102107.84
2019-02-14T14:02:55.871Z,102110.64
2019-02-14T14:05:23.531Z,102107.51
2019-02-14T14:07:51.190Z,102103.45
2019-02-14T14:10:18.841Z,102094.84
2019-02-14T14:12:46.493Z,102095.88
2019-02-14T14:15:14.160Z,102096.98
2019-02-14T14:17:41.815Z,102100.37
2019-02-14T14:20:09.473Z,102111.04
2019-02-14T14:22:37.153Z,102107.55
2019-02-14T14:25:04.809Z,102103.74
2019-02-14T14:27:32.458Z,102102.66
2019-02-14T14:30:00.134Z,102110.97
2019-02-14T14:32:27.969Z,102113.12
2019-02-14T14:34:55.638Z,102115.03
2019-02-14T14:37:23.333Z,102104.25
2019-02-14T14:39:50.992Z,102102.05
2019-02-14T14:42:37.685Z,102099.30
2019-02-14T14:45:07.106Z,102092.94
2019-02-14T14:47:34.763Z,102092.26
2019-02-14T14:50:02.434Z,102091.43
2019-02-14T14:52:30.097Z,102091.31
2019-02-14T14:54:57.755Z,102089.41
2019-02-14T14:57:25.401Z,102088.22
2019-02-14T14:59:53.069Z,102089.67
2019-02-14T15:02:20.730Z,102095.63
2019-02-14T15:04:48.436Z,102090.97
2019-02-14T15:07:16.131Z,102089.30
2019-02-14T15:09:43.793Z,102089.07
2019-02-14T15:12:11.481Z,102084.02
2019-02-14T15:14:39.194Z,102088.00
2019-02-14T15:17:06.866Z,102087.32
2019-02-14T15:19:34.523Z,102082.97
2019-02-14T15:22:02.189Z,102086.78
2019-02-14T15:24:29.857Z,102081.94
2019-02-14T15:26:57.568Z,102077.48
2019-02-14T15:29:25.223Z,102084.45
2019-02-14T15:31:52.958Z,102075.94
2019-02-14T15:34:20.613Z,102069.30
2019-02-14T15:36:49.537Z,102064.06
2019-02-14T15:39:17.641Z,102068.56
2019-02-14T15:41:45.298Z,102060.13
2019-02-14T15:44:12.947Z,102060.63
2019-02-14T15:46:40.592Z,102058.59
2019-02-14T15:49:08.255Z,102064.35
2019-02-14T15:51:35.892Z,102057.59
2019-02-14T15:54:03.629Z,102066.84
2019-02-14T15:56:31.607Z,102055.34
2019-02-14T15:58:59.421Z,102054.23
2019-02-14T16:01:27.074Z,102059.86
2019-02-14T16:03:54.747Z,102060.34
2019-02-14T16:06:22.395Z,102064.98
2019-02-14T16:08:50.043Z,102064.09
2019-02-14T16:11:17.692Z,102062.53
2019-02-14T16:13:45.361Z,102057.95
2019-02-14T16:16:13.025Z,102067.75
2019-02-14T16:18:40.674Z,102062.96
2019-02-14T16:21:08.337Z,102068.11
2019-02-14T16:23:35.990Z,102064.44
2019-02-14T16:26:03.651Z,102059.78
2019-02-14T16:28:31.300Z,102057.36
2019-02-14T16:30:58.954Z,102057.48
2019-02-14T16:33:26.609Z,102057.36
2019-02-14T16:35:54.266Z,102054.48
2019-02-14T16:38:21.916Z,102058.69
2019-02-14T16:40:49.566Z,102049.63
2019-02-14T16:43:17.233Z,102059.02
2019-02-14T16:45:44.881Z,102057.22
2019-02-14T16:48:12.533Z,102058.62
2019-02-14T16:50:40.177Z,102062.18
2019-02-14T16:53:07.823Z,102054.58
2019-02-14T16:55:35.469Z,102055.08
2019-02-14T16:58:03.208Z,102054.85
2019-02-14T17:00:30.928Z,102057.84
2019-02-14T17:02:58.583Z,102060.89
2019-02-14T17:05:26.237Z,102063.05
2019-02-14T17:07:55.948Z,102069.84
2019-02-14T17:10:23.237Z,102073.75
2019-02-14T17:12:50.899Z,102074.08
2019-02-14T17:15:18.547Z,102064.84
2019-02-14T17:17:46.206Z,102076.37
2019-02-14T17:20:13.853Z,102078.58
2019-02-14T17:22:41.498Z,102083.42
2019-02-14T17:25:09.146Z,102083.67
2019-02-14T17:27:36.814Z,102085.62
2019-02-14T17:30:04.494Z,102090.67
2019-02-14T17:32:32.141Z,102089.25
2019-02-14T17:34:59.806Z,102092.50
2019-02-14T17:37:27.459Z,102094.92
2019-02-14T17:39:55.111Z,102097.87
2019-02-14T17:42:22.766Z,102096.36
2019-02-14T17:44:50.430Z,102100.87
2019-02-14T17:47:18.081Z,102104.49
2019-02-14T17:49:45.738Z,102101.84
2019-02-14T17:52:13.382Z,102102.22
2019-02-14T17:54:41.043Z,102096.57
2019-02-14T17:57:08.697Z,102094.39
2019-02-14T17:59:36.353Z,102092.14
2019-02-14T18:02:04.014Z,102102.25
2019-02-14T18:04:31.682Z,102112.75
2019-02-14T18:06:59.338Z,102102.81
2019-02-14T18:09:26.991Z,102103.60
2019-02-14T18:11:54.646Z,102102.05
2019-02-14T18:14:22.297Z,102106.93
2019-02-14T18:16:49.949Z,102106.42
2019-02-14T18:19:17.601Z,102111.13
2019-02-14T18:21:45.246Z,102105.36
2019-02-14T18:24:12.907Z,102111.84
2019-02-14T18:26:40.566Z,102100.57
2019-02-14T18:29:08.213Z,102101.98
2019-02-14T18:31:35.870Z,102103.58
2019-02-14T18:34:03.533Z,102102.50
2019-02-14T18:36:31.186Z,102110.84
2019-02-14T18:38:58.842Z,102108.79
2019-02-14T18:41:26.499Z,102108.62
2019-02-14T18:43:54.159Z,102114.75
2019-02-14T18:46:21.818Z,102116.03
2019-02-14T18:48:49.475Z,102113.08
2019-02-14T18:51:17.126Z,102116.34
2019-02-14T18:53:44.808Z,102121.02
2019-02-14T18:56:12.458Z,102112.13
2019-02-14T18:58:40.106Z,102113.93
2019-02-14T19:01:07.859Z,102103.69
2019-02-14T19:03:35.589Z,102107.95
2019-02-14T19:06:03.257Z,102099.30
2019-02-14T19:08:30.994Z,102104.11
2019-02-14T19:10:58.646Z,102106.62
2019-02-14T19:13:26.298Z,102108.55
2019-02-14T19:15:53.955Z,102097.85
2019-02-14T19:18:21.682Z,102098.03
2019-02-14T19:20:49.346Z,102094.70
2019-02-14T19:23:24.218Z,102093.94
2019-02-14T19:25:46.354Z,102095.48
2019-02-14T19:28:14.017Z,102091.52
2019-02-14T19:30:41.673Z,102090.13
2019-02-14T19:33:09.410Z,102095.23
2019-02-14T19:35:37.079Z,102094.33
2019-02-14T19:38:04.749Z,102089.09
2019-02-14T19:40:32.482Z,102088.31
2019-02-14T19:43:00.149Z,102085.70
2019-02-14T19:45:36.252Z,102091.84
2019-02-14T19:47:57.177Z,102091.91
2019-02-14T19:50:24.841Z,102092.66
2019-02-14T19:52:52.481Z,102097.27
2019-02-14T19:55:20.158Z,102096.77
2019-02-14T19:57:47.862Z,102102.88
2019-02-14T20:00:15.530Z,102098.03
2019-02-14T20:02:43.193Z,102096.91
2019-02-14T20:05:10.854Z,102095.59
2019-02-14T20:07:38.491Z,102094.39
2019-02-14T20:10:06.153Z,102100.58
2019-02-14T20:12:33.801Z,102097.13
2019-02-14T20:15:01.462Z,102099.05
2019-02-14T20:17:29.104Z,102092.52
2019-02-14T20:19:56.754Z,102092.95
2019-02-14T20:22:24.399Z,102099.09
2019-02-14T20:24:52.057Z,102091.30
2019-02-14T20:27:19.710Z,102085.14
2019-02-14T20:29:47.446Z,102091.88
2019-02-14T20:32:15.117Z,102089.91
2019-02-14T20:34:42.770Z,102088.11
2019-02-14T20:37:10.436Z,102079.12
2019-02-14T20:39:38.077Z,102080.93
2019-02-14T20:42:05.742Z,102078.73
2019-02-14T20:44:33.402Z,102087.29
2019-02-14T20:47:01.059Z,102092.86
2019-02-14T20:49:28.699Z,102083.22
2019-02-14T20:51:56.356Z,102080.30
2019-02-14T20:54:24.021Z,102088.31
2019-02-14T20:56:51.677Z,102084.21
2019-02-14T20:59:19.325Z,102090.84
2019-02-14T21:01:46.994Z,102094.06
2019-02-14T21:04:14.640Z,102089.74
2019-02-14T21:06:42.295Z,102088.88
2019-02-14T21:09:09.970Z,102095.92
2019-02-14T21:11:37.686Z,102091.25
2019-02-14T21:14:05.337Z,102094.25
2019-02-14T21:16:32.989Z,102093.16
2019-02-14T21:19:00.625Z,102093.80
2019-02-14T21:21:28.286Z,102090.94
2019-02-14T21:23:55.952Z,102084.55
2019-02-14T21:26:23.650Z,102092.36
2019-02-14T21:28:51.312Z,102094.55
2019-02-14T21:31:18.966Z,102093.88
2019-02-14T21:33:46.630Z,102095.56
2019-02-14T21:36:14.378Z,102088.39
2019-02-14T21:38:42.107Z,102092.81
2019-02-14T21:41:09.790Z,102097.54
2019-02-14T21:43:37.534Z,102100.14
2019-02-14T21:46:05.270Z,102104.81
2019-02-14T21:48:32.923Z,102101.20
2019-02-14T21:51:00.624Z,102101.31
2019-02-14T21:53:28.439Z,102108.91
2019-02-14T21:55:56.180Z,102103.38
2019-02-14T21:58:23.912Z,102104.39
2019-02-14T22:00:51.659Z,102103.76
2019-02-14T22:03:19.311Z,102101.31
2019-02-14T22:05:46.972Z,102102.08
2019-02-14T22:08:14.626Z,102111.66
2019-02-14T22:10:42.286Z,102111.91
2019-02-14T22:13:09.939Z,102108.88
2019-02-14T22:15:37.590Z,102112.27
2019-02-14T22:18:05.253Z,102112.27
2019-02-14T22:20:32.914Z,102108.59
2019-02-14T22:23:00.573Z,102112.95
2019-02-14T22:25:28.217Z,102118.56
2019-02-14T22:27:55.886Z,102118.14
2019-02-14T22:30:23.538Z,102121.43
2019-02-14T22:32:51.203Z,102122.23
2019-02-14T22:35:18.861Z,102125.58
2019-02-14T22:37:46.517Z,102128.69
2019-02-14T22:40:14.175Z,102129.50
2019-02-14T22:42:47.307Z,102132.97
2019-02-14T22:45:13.262Z,102133.77
2019-02-14T22:47:40.560Z,102130.10
2019-02-14T22:50:08.226Z,102124.38
2019-02-14T22:52:35.865Z,102136.59
2019-02-14T22:55:03.526Z,102138.86
2019-02-14T22:57:31.185Z,102144.63
2019-02-14T22:59:58.845Z,102141.86
2019-02-14T23:02:26.506Z,102144.50
2019-02-14T23:04:54.158Z,102147.81
2019-02-14T23:07:21.832Z,102146.59
2019-02-14T23:09:49.485Z,102152.35
2019-02-14T23:12:17.146Z,102157.45
2019-02-14T23:14:44.789Z,102162.24
2019-02-14T23:17:12.450Z,102165.01
2019-02-14T23:19:40.117Z,102164.80
2019-02-14T23:22:07.780Z,102163.07
2019-02-14T23:24:35.425Z,102154.83
2019-02-14T23:27:03.082Z,102158.36
2019-02-14T23:29:30.734Z,102156.33
2019-02-14T23:31:58.394Z,102156.47
2019-02-14T23:34:26.037Z,102151.24
2019-02-14T23:36:53.698Z,102154.40
2019-02-14T23:39:21.358Z,102156.64
2019-02-14T23:41:49.023Z,102154.07
2019-02-14T23:44:16.673Z,102153.17
2019-02-14T23:46:44.338Z,102157.91
2019-02-14T23:49:12.279Z,102159.39
2019-02-14T23:51:39.937Z,102151.30
2019-02-14T23:54:07.592Z,102155.25
2019-02-14T23:56:35.262Z,102160.39
2019-02-14T23:59:02.929Z,102160.01
